Time,TemperatureF,DewpointF,PressureIn,WindDirection,WindDirectionDegrees,WindSpeedMPH,WindSpeedGustMPH,Humidity,HourlyPrecipIn,Conditions,Clouds,dailyrainin,SoftwareType,DateUTC
2013-02-11 00:00:00,39.4,29.3,30.12,SSW,193,9.2,9.2,67,0.01,CLR,,0.01,WeatherDisplay:10.37,2013-02-11 05:00:00,
2013-02-11 00:05:00,39.6,29.2,30.11,SW,232,11.5,11.5,66,0.00,RA,,0.00,WeatherDisplay:10.37,2013-02-11 05:05:00,
2013-02-11 00:10:00,39.6,29.9,30.11,SW,222,8.1,8.1,68,0.00,CLR,,0.00,WeatherDisplay:10.37,2013-02-11 05:10:00,
2013-02-11 00:15:00,39.7,29.6,30.11,South,191,5.8,5.8,67,0.00,CLR,,0.00,WeatherDisplay:10.37,2013-02-11 05:15:00,
2013-02-11 00:20:00,39.7,29.6,30.11,SSW,208,6.9,6.9,67,0.00,CLR,,0.00,WeatherDisplay:10.37,2013-02-11 05:20:00,
2013-02-11 00:25:00,39.7,29.3,30.11,WSW,253,12.7,12.7,66,0.00,CLR,,0.00,WeatherDisplay:10.37,2013-02-11 05:25:00,
2013-02-11 00:30:00,39.7,29.3,30.10,South,174,4.6,4.6,66,0.00,CLR,,0.00,WeatherDisplay:10.37,2013-02-11 05:30:00,
2013-02-11 00:35:00,39.6,29.5,30.10,South,185,9.2,9.2,67,0.01,CLR,,0.00,WeatherDisplay:10.37,2013-02-11 05:35:00,
2013-02-11 00:40:00,39.7,29.6,30.10,SSW,210,6.9,6.9,67,0.00,CLR,,0.00,WeatherDisplay:10.37,2013-02-11 05:40:00,
2013-02-11 00:45:00,39.7,30.0,30.10,SSW,202,8.1,8.1,68,0.00,CLR,,0.00,WeatherDisplay:10.37,2013-02-11 05:45:00,
2013-02-11 00:50:00,39.6,30.3,30.10,WSW,254,8.1,8.1,69,0.00,CLR,,0.00,WeatherDisplay:10.37,2013-02-11 05:50:00,
2013-02-11 00:55:00,39.4,30.4,30.10,SSW,208,9.2,9.2,70,0.00,CLR,,0.00,WeatherDisplay:10.37,2013-02-11 05:55:00,
2013-02-11 01:00:00,39.2,30.6,30.10,WNW,301,8.1,8.1,71,0.00,CLR,,0.00,WeatherDisplay:10.37,2013-02-11 06:00:00,
2013-02-11 01:05:00,38.8,31.2,30.09,SW,220,9.2,9.2,74,0.00,CLR,,0.00,WeatherDisplay:10.37,2013-02-11 06:05:00,
2013-02-11 01:10:00,38.4,31.8,30.08,WSW,239,8.8,8.8,77,0.00,CLR,,0.00,WeatherDisplay:10.37,2013-02-11 06:10:00,
2013-02-11 01:15:00,38.2,31.9,30.09,WSW,256,8.1,8.1,78,0.00,CLR,,0.00,WeatherDisplay:10.37,2013-02-11 06:15:00,
2013-02-11 01:20:00,38.0,32.1,30.08,West,281,4.6,4.6,79,0.00,CLR,,0.00,WeatherDisplay:10.37,2013-02-11 06:20:00,
2013-02-11 01:25:00,37.6,32.3,30.08,SW,217,9.2,9.2,81,0.00,CLR,,0.00,WeatherDisplay:10.37,2013-02-11 06:25:00,
2013-02-11 01:30:00,37.6,32.3,30.08,South,178,8.1,8.1,81,0.00,CLR,,0.00,WeatherDisplay:10.37,2013-02-11 06:30:00,
2013-02-11 01:35:00,37.5,32.5,30.08,SW,227,8.1,8.1,82,0.00,CLR,,0.00,WeatherDisplay:10.37,2013-02-11 06:35:00,
2013-02-11 01:40:00,37.5,32.5,30.08,SW,232,9.1,9.1,82,0.00,CLR,,0.00,WeatherDisplay:10.37,2013-02-11 06:40:00,
2013-02-11 01:45:00,37.5,32.8,30.08,SSW,210,12.7,12.7,83,0.00,CLR,,0.00,WeatherDisplay:10.37,2013-02-11 06:45:00,
2013-02-11 01:50:00,37.4,33.3,30.08,WSW,250,8.1,8.1,85,0.00,CLR,,0.00,WeatherDisplay:10.37,2013-02-11 06:50:00,
2013-02-11 01:55:00,37.2,34.0,30.08,SSW,206,16.1,16.1,88,0.00,CLR,,0.00,WeatherDisplay:10.37,2013-02-11 06:55:00,
2013-02-11 02:00:00,37.0,33.8,30.07,SSW,209,11.9,11.9,88,0.00,CLR,,0.00,WeatherDisplay:10.37,2013-02-11 07:00:00,
2013-02-11 02:05:00,36.9,34.0,30.07,WSW,237,11.5,11.5,89,0.00,CLR,,0.00,WeatherDisplay:10.37,2013-02-11 07:05:00,
2013-02-11 02:10:00,37.0,34.1,30.06,SW,215,9.2,9.2,89,0.00,CLR,,0.00,WeatherDisplay:10.37,2013-02-11 07:10:00,
2013-02-11 02:15:00,37.2,34.0,30.06,SW,226,12.7,12.7,88,0.00,CLR,,0.00,WeatherDisplay:10.37,2013-02-11 07:15:00,
2013-02-11 02:20:00,37.4,34.2,30.06,WNW,302,12.7,12.7,88,0.00,CLR,,0.00,WeatherDisplay:10.37,2013-02-11 07:20:00,
2013-02-11 02:25:00,37.5,34.0,30.06,South,188,9.2,9.2,87,0.00,CLR,,0.00,WeatherDisplay:10.37,2013-02-11 07:25:00,
2013-02-11 02:30:00,37.7,33.9,30.05,SW,229,15.0,15.0,86,0.00,CLR,,0.00,WeatherDisplay:10.37,2013-02-11 07:30:00,
2013-02-11 02:35:00,37.9,33.8,30.05,WSW,250,13.8,13.8,85,0.00,CLR,,0.00,WeatherDisplay:10.37,2013-02-11 07:35:00,
2013-02-11 02:40:00,38.0,33.9,30.05,WNW,299,8.1,8.1,85,0.00,CLR,,0.00,WeatherDisplay:10.37,2013-02-11 07:40:00,
2013-02-11 02:45:00,38.0,34.2,30.04,NW,304,10.4,10.4,86,0.00,CLR,,0.00,WeatherDisplay:10.37,2013-02-11 07:45:00,
2013-02-11 02:50:00,38.0,34.2,30.04,WNW,287,9.2,9.2,86,0.00,CLR,,0.00,WeatherDisplay:10.37,2013-02-11 07:50:00,
2013-02-11 02:55:00,38.0,34.2,30.04,WSW,250,10.4,10.4,86,0.00,CLR,,0.00,WeatherDisplay:10.37,2013-02-11 07:55:00,
2013-02-11 03:00:00,38.1,34.3,30.04,WSW,240,7.6,7.6,86,0.00,CLR,,0.00,WeatherDisplay:10.37,2013-02-11 08:00:00,
2013-02-11 03:05:00,37.9,34.4,30.04,WNW,289,8.1,8.1,87,0.00,CLR,,0.00,WeatherDisplay:10.37,2013-02-11 08:05:00,
2013-02-11 03:11:00,37.8,34.6,30.02,South,178,6.9,6.9,88,0.00,CLR,,0.00,WeatherDisplay:10.37,2013-02-11 08:11:00,
2013-02-11 03:16:00,37.7,34.8,30.02,WSW,257,9.2,9.2,89,0.00,CLR,,0.00,WeatherDisplay:10.37,2013-02-11 08:16:00,
2013-02-11 03:21:00,37.6,34.7,30.01,West,264,10.4,10.4,89,0.00,CLR,,0.00,WeatherDisplay:10.37,2013-02-11 08:21:00,
2013-02-11 03:26:00,37.5,34.8,30.01,SSW,213,5.8,5.8,90,0.00,CLR,,0.00,WeatherDisplay:10.37,2013-02-11 08:26:00,
2013-02-11 03:31:00,37.5,34.8,30.01,South,174,13.8,13.8,90,0.00,CLR,,0.00,WeatherDisplay:10.37,2013-02-11 08:31:00,
2013-02-11 03:36:00,37.5,35.1,30.01,South,189,9.2,9.2,91,0.00,CLR,,0.00,WeatherDisplay:10.37,2013-02-11 08:36:00,
2013-02-11 03:41:00,37.5,35.1,30.01,SW,224,9.2,9.2,91,0.00,CLR,,0.00,WeatherDisplay:10.37,2013-02-11 08:41:00,
2013-02-11 03:46:00,37.5,35.4,30.00,SW,215,6.9,6.9,92,0.00,CLR,,0.00,WeatherDisplay:10.37,2013-02-11 08:46:00,
2013-02-11 03:51:00,37.5,35.4,29.99,SSW,212,10.4,10.4,92,0.00,CLR,,0.00,WeatherDisplay:10.37,2013-02-11 08:51:00,
2013-02-11 03:56:00,37.6,35.5,29.99,WSW,247,8.1,8.1,92,0.00,CLR,,0.00,WeatherDisplay:10.37,2013-02-11 08:56:00,
2013-02-11 04:01:00,37.8,35.7,30.00,SW,215,9.7,9.7,92,0.00,CLR,,0.00,WeatherDisplay:10.37,2013-02-11 09:01:00,
2013-02-11 04:06:00,38.0,35.9,29.99,SW,236,10.1,10.1,92,0.00,CLR,,0.00,WeatherDisplay:10.37,2013-02-11 09:06:00,
2013-02-11 04:11:00,38.2,36.1,30.00,SW,226,6.9,6.9,92,0.00,CLR,,0.00,WeatherDisplay:10.37,2013-02-11 09:11:00,
2013-02-11 04:16:00,38.4,36.0,29.99,West,261,5.8,5.8,91,0.00,CLR,,0.00,WeatherDisplay:10.37,2013-02-11 09:16:00,
2013-02-11 04:21:00,38.3,36.2,29.99,WNW,298,6.9,6.9,92,0.00,CLR,,0.00,WeatherDisplay:10.37,2013-02-11 09:21:00,
2013-02-11 04:26:00,38.4,36.0,29.99,ESE,112,8.1,8.1,91,0.00,CLR,,0.00,WeatherDisplay:10.37,2013-02-11 09:26:00,
2013-02-11 04:31:00,38.3,35.9,29.99,SW,219,5.8,5.8,91,0.00,CLR,,0.00,WeatherDisplay:10.37,2013-02-11 09:31:00,
2013-02-11 04:36:00,38.3,35.9,29.99,SSW,200,8.1,8.1,91,0.00,CLR,,0.00,WeatherDisplay:10.37,2013-02-11 09:36:00,
2013-02-11 04:41:00,38.4,36.0,29.98,WSW,243,4.0,4.0,91,0.00,CLR,,0.00,WeatherDisplay:10.37,2013-02-11 09:41:00,
2013-02-11 04:46:00,38.3,36.2,29.98,SW,223,4.6,4.6,92,0.00,CLR,,0.00,WeatherDisplay:10.37,2013-02-11 09:46:00,
2013-02-11 04:51:00,38.5,36.4,29.97,SSW,213,4.6,4.6,92,0.00,CLR,,0.00,WeatherDisplay:10.37,2013-02-11 09:51:00,
2013-02-11 04:56:00,38.5,36.7,29.97,West,263,6.9,6.9,93,0.00,CLR,,0.00,WeatherDisplay:10.37,2013-02-11 09:56:00,
2013-02-11 05:01:00,38.6,36.8,29.97,SW,223,5.8,5.8,93,0.00,CLR,,0.00,WeatherDisplay:10.37,2013-02-11 10:01:00,
2013-02-11 05:06:00,38.8,36.9,29.97,SW,230,8.1,8.1,93,0.00,CLR,,0.00,WeatherDisplay:10.37,2013-02-11 10:06:00,
2013-02-11 05:11:00,38.9,37.0,29.97,WSW,244,8.1,8.1,93,0.00,CLR,,0.00,WeatherDisplay:10.37,2013-02-11 10:11:00,
2013-02-11 05:16:00,39.2,37.3,29.96,SSE,154,4.6,4.6,93,0.00,CLR,,0.00,WeatherDisplay:10.37,2013-02-11 10:16:00,
2013-02-11 05:21:00,39.3,37.4,29.96,WSW,251,8.1,8.1,93,0.00,CLR,,0.00,WeatherDisplay:10.37,2013-02-11 10:21:00,
2013-02-11 05:26:00,39.5,37.4,29.97,SSW,212,5.8,5.8,92,0.00,CLR,,0.00,WeatherDisplay:10.37,2013-02-11 10:26:00,
2013-02-11 05:31:00,39.6,37.5,29.96,SW,227,5.8,5.8,92,0.00,CLR,,0.00,WeatherDisplay:10.37,2013-02-11 10:31:00,
2013-02-11 05:36:00,39.6,37.7,29.97,WSW,244,3.5,3.5,93,0.00,CLR,,0.00,WeatherDisplay:10.37,2013-02-11 10:36:00,
2013-02-11 05:41:00,39.7,37.8,29.96,WSW,237,4.6,4.6,93,0.00,CLR,,0.00,WeatherDisplay:10.37,2013-02-11 10:41:00,
2013-02-11 05:46:00,39.8,38.2,29.96,West,280,8.1,8.1,94,0.00,CLR,,0.00,WeatherDisplay:10.37,2013-02-11 10:46:00,
2013-02-11 05:51:00,40.0,38.4,29.96,West,265,8.1,8.1,94,0.00,CLR,,0.00,WeatherDisplay:10.37,2013-02-11 10:51:00,
2013-02-11 05:56:00,40.3,38.4,29.96,WSW,241,11.5,11.5,93,0.00,CLR,,0.00,WeatherDisplay:10.37,2013-02-11 10:56:00,
2013-02-11 06:01:00,40.4,38.5,29.95,SSW,208,8.1,8.1,93,0.00,CLR,,0.00,WeatherDisplay:10.37,2013-02-11 11:01:00,
2013-02-11 06:06:00,40.4,38.5,29.95,WSW,253,8.1,8.1,93,0.00,CLR,,0.00,WeatherDisplay:10.37,2013-02-11 11:06:00,
2013-02-11 06:11:00,40.4,38.5,29.95,SW,232,8.3,8.3,93,0.00,CLR,,0.00,WeatherDisplay:10.37,2013-02-11 11:11:00,
2013-02-11 06:16:00,40.6,39.0,29.95,West,271,9.2,9.2,94,0.00,CLR,,0.00,WeatherDisplay:10.37,2013-02-11 11:16:00,
2013-02-11 06:21:00,40.9,39.3,29.95,SSW,205,2.3,2.3,94,0.00,CLR,,0.00,WeatherDisplay:10.37,2013-02-11 11:21:00,
2013-02-11 06:26:00,40.9,39.3,29.95,SSW,202,6.9,6.9,94,0.00,CLR,,0.00,WeatherDisplay:10.37,2013-02-11 11:26:00,
2013-02-11 06:31:00,41.0,39.4,29.95,WSW,246,3.5,3.5,94,0.00,CLR,,0.00,WeatherDisplay:10.37,2013-02-11 11:31:00,
2013-02-11 06:36:00,41.1,39.8,29.95,SW,230,3.5,3.5,95,0.00,CLR,,0.00,WeatherDisplay:10.37,2013-02-11 11:36:00,
2013-02-11 06:41:00,41.2,39.6,29.95,SW,216,3.5,3.5,94,0.00,CLR,,0.00,WeatherDisplay:10.37,2013-02-11 11:41:00,
2013-02-11 06:46:00,41.3,40.0,29.95,WSW,239,3.5,3.5,95,0.00,CLR,,0.00,WeatherDisplay:10.37,2013-02-11 11:46:00,
2013-02-11 06:51:00,41.7,40.6,29.94,SW,230,8.1,8.1,96,0.00,CLR,,0.00,WeatherDisplay:10.37,2013-02-11 11:51:00,
2013-02-11 06:56:00,43.1,41.8,29.94,SSW,199,15.0,15.0,95,0.00,CLR,,0.00,WeatherDisplay:10.37,2013-02-11 11:56:00,
2013-02-11 07:01:00,44.2,42.0,29.94,SSW,195,11.5,11.5,92,0.00,CLR,,0.00,WeatherDisplay:10.37,2013-02-11 12:01:00,
2013-02-11 07:06:00,44.8,42.3,29.93,SE,126,9.2,9.2,91,0.00,CLR,,0.00,WeatherDisplay:10.37,2013-02-11 12:06:00,
2013-02-11 07:11:00,44.9,42.4,29.94,WNW,291,11.5,11.5,91,0.00,CLR,,0.00,WeatherDisplay:10.37,2013-02-11 12:11:00,
2013-02-11 07:16:00,44.9,42.4,29.93,South,172,9.2,9.2,91,0.00,CLR,,0.00,WeatherDisplay:10.37,2013-02-11 12:16:00,
2013-02-11 07:21:00,44.8,42.3,29.93,SSW,200,5.8,5.8,91,0.00,CLR,,0.00,WeatherDisplay:10.37,2013-02-11 12:21:00,
2013-02-11 07:26:00,44.9,42.4,29.93,SSW,205,10.4,10.4,91,0.00,CLR,,0.00,WeatherDisplay:10.37,2013-02-11 12:26:00,
2013-02-11 07:31:00,44.8,42.3,29.92,South,185,10.4,10.4,91,0.00,CLR,,0.00,WeatherDisplay:10.37,2013-02-11 12:31:00,
2013-02-11 07:36:00,44.8,42.3,29.92,West,265,8.1,8.1,91,0.00,CLR,,0.00,WeatherDisplay:10.37,2013-02-11 12:36:00,
2013-02-11 07:41:00,44.6,42.4,29.91,WNW,292,3.5,3.5,92,0.00,CLR,,0.00,WeatherDisplay:10.37,2013-02-11 12:41:00,
2013-02-11 07:46:00,44.5,42.3,29.91,West,268,4.0,4.0,92,0.00,CLR,,0.00,WeatherDisplay:10.37,2013-02-11 12:46:00,
2013-02-11 07:51:00,44.4,42.5,29.92,WSW,253,5.8,5.8,93,0.00,CLR,,0.00,WeatherDisplay:10.37,2013-02-11 12:51:00,
2013-02-11 07:56:00,44.6,42.4,29.91,NW,305,5.8,5.8,92,0.00,CLR,,0.00,WeatherDisplay:10.37,2013-02-11 12:56:00,
2013-02-11 08:01:00,44.6,42.4,29.91,SSW,198,10.4,10.4,92,0.00,CLR,,0.00,WeatherDisplay:10.37,2013-02-11 13:01:00,
2013-02-11 08:06:00,44.7,42.5,29.91,SW,219,8.1,8.1,92,0.00,CLR,,0.00,WeatherDisplay:10.37,2013-02-11 13:06:00,
2013-02-11 08:12:00,44.6,42.4,29.92,SW,236,8.1,8.1,92,0.00,CLR,,0.00,WeatherDisplay:10.37,2013-02-11 13:12:00,
2013-02-11 08:17:00,44.6,42.4,29.91,SSW,199,8.1,8.1,92,0.00,CLR,,0.00,WeatherDisplay:10.37,2013-02-11 13:17:00,
2013-02-11 08:22:00,44.6,42.4,29.92,SSE,155,5.8,5.8,92,0.00,CLR,,0.00,WeatherDisplay:10.37,2013-02-11 13:22:00,
2013-02-11 08:27:00,44.7,42.5,29.92,WSW,257,8.1,8.1,92,0.00,CLR,,0.00,WeatherDisplay:10.37,2013-02-11 13:27:00,
2013-02-11 08:32:00,44.8,42.6,29.93,WSW,239,8.3,8.3,92,0.00,CLR,,0.00,WeatherDisplay:10.37,2013-02-11 13:32:00,
2013-02-11 08:37:00,44.9,42.7,29.91,SSE,165,9.2,9.2,92,0.00,CLR,,0.00,WeatherDisplay:10.37,2013-02-11 13:37:00,
2013-02-11 08:42:00,45.0,42.8,29.92,SSW,209,6.9,6.9,92,0.00,CLR,,0.00,WeatherDisplay:10.37,2013-02-11 13:42:00,
2013-02-11 08:47:00,45.1,42.9,29.91,WSW,239,8.1,8.1,92,0.00,CLR,,0.00,WeatherDisplay:10.37,2013-02-11 13:47:00,
2013-02-11 08:52:00,45.1,42.9,29.91,SSW,210,6.9,6.9,92,0.00,CLR,,0.00,WeatherDisplay:10.37,2013-02-11 13:52:00,
2013-02-11 08:57:00,45.1,42.9,29.91,South,189,5.8,5.8,92,0.00,CLR,,0.00,WeatherDisplay:10.37,2013-02-11 13:57:00,
2013-02-11 09:02:00,45.3,43.1,29.91,West,280,10.4,10.4,92,0.00,CLR,,0.00,WeatherDisplay:10.37,2013-02-11 14:02:00,
2013-02-11 09:07:00,45.7,43.2,29.91,SSW,206,9.2,9.2,91,0.00,CLR,,0.00,WeatherDisplay:10.37,2013-02-11 14:07:00,
2013-02-11 09:12:00,45.9,43.4,29.91,WSW,250,4.6,4.6,91,0.00,CLR,,0.00,WeatherDisplay:10.37,2013-02-11 14:12:00,
2013-02-11 09:17:00,46.1,43.6,29.91,West,265,5.8,5.8,91,0.00,CLR,,0.00,WeatherDisplay:10.37,2013-02-11 14:17:00,
2013-02-11 09:22:00,46.2,43.4,29.92,West,261,5.0,5.0,90,0.00,CLR,,0.00,WeatherDisplay:10.37,2013-02-11 14:22:00,
2013-02-11 09:27:00,46.3,43.5,29.92,WNW,296,8.1,8.1,90,0.00,CLR,,0.00,WeatherDisplay:10.37,2013-02-11 14:27:00,
2013-02-11 09:32:00,46.6,43.8,29.91,West,272,5.9,5.9,90,0.00,CLR,,0.00,WeatherDisplay:10.37,2013-02-11 14:32:00,
2013-02-11 09:37:00,47.3,44.2,29.90,WSW,239,8.1,8.1,89,0.00,CLR,,0.00,WeatherDisplay:10.37,2013-02-11 14:37:00,
2013-02-11 09:42:00,47.9,44.5,29.90,WSW,248,4.6,4.6,88,0.00,CLR,,0.00,WeatherDisplay:10.37,2013-02-11 14:42:00,
2013-02-11 09:47:00,48.5,44.5,29.91,West,281,6.9,6.9,86,0.00,CLR,,0.00,WeatherDisplay:10.37,2013-02-11 14:47:00,
2013-02-11 09:52:00,48.9,44.9,29.91,WSW,237,5.8,5.8,86,0.00,CLR,,0.00,WeatherDisplay:10.37,2013-02-11 14:52:00,
2013-02-11 09:57:00,49.4,45.4,29.90,NW,316,5.8,5.8,86,0.00,CLR,,0.00,WeatherDisplay:10.37,2013-02-11 14:57:00,
2013-02-11 10:02:00,49.8,45.5,29.90,West,271,8.1,8.1,85,0.00,CLR,,0.00,WeatherDisplay:10.37,2013-02-11 15:02:00,
2013-02-11 10:07:00,50.2,45.6,29.90,WSW,248,9.2,9.2,84,0.00,CLR,,0.00,WeatherDisplay:10.37,2013-02-11 15:07:00,
2013-02-11 10:12:00,50.4,45.7,29.90,WNW,301,11.5,11.5,84,0.00,CLR,,0.00,WeatherDisplay:10.37,2013-02-11 15:12:00,
2013-02-11 10:17:00,50.7,46.0,29.90,West,278,6.9,6.9,84,0.00,CLR,,0.00,WeatherDisplay:10.37,2013-02-11 15:17:00,
2013-02-11 10:22:00,51.1,46.4,29.88,South,181,9.2,9.2,84,0.00,CLR,,0.00,WeatherDisplay:10.37,2013-02-11 15:22:00,
2013-02-11 10:27:00,51.6,46.6,29.88,West,272,6.9,6.9,83,0.00,CLR,,0.00,WeatherDisplay:10.37,2013-02-11 15:27:00,
2013-02-11 10:32:00,51.8,46.5,29.88,WSW,244,5.8,5.8,82,0.00,CLR,,0.00,WeatherDisplay:10.37,2013-02-11 15:32:00,
2013-02-11 10:37:00,52.1,47.1,29.88,NW,304,5.3,5.3,83,0.00,CLR,,0.00,WeatherDisplay:10.37,2013-02-11 15:37:00,
2013-02-11 10:42:00,52.3,47.0,29.88,West,281,8.1,8.1,82,0.00,CLR,,0.00,WeatherDisplay:10.37,2013-02-11 15:42:00,
2013-02-11 10:47:00,52.6,47.3,29.88,South,184,7.8,7.8,82,0.00,CLR,,0.00,WeatherDisplay:10.37,2013-02-11 15:47:00,
2013-02-11 10:52:00,53.4,47.4,29.87,WSW,256,7.6,7.6,80,0.00,CLR,,0.00,WeatherDisplay:10.37,2013-02-11 15:52:00,
2013-02-11 10:57:00,53.8,48.1,29.87,SSW,193,8.1,8.1,81,0.00,CLR,,0.00,WeatherDisplay:10.37,2013-02-11 15:57:00,
2013-02-11 11:02:00,54.2,47.8,29.87,West,275,11.5,11.5,79,0.00,CLR,,0.00,WeatherDisplay:10.37,2013-02-11 16:02:00,
2013-02-11 11:07:00,54.5,48.5,29.86,WSW,258,9.2,9.2,80,0.00,CLR,,0.00,WeatherDisplay:10.37,2013-02-11 16:07:00,
2013-02-11 11:12:00,55.0,48.6,29.85,West,270,6.9,6.9,79,0.00,CLR,,0.00,WeatherDisplay:10.37,2013-02-11 16:12:00,
2013-02-11 11:17:00,55.2,48.5,29.85,WNW,292,5.8,5.8,78,0.00,CLR,,0.00,WeatherDisplay:10.37,2013-02-11 16:17:00,
2013-02-11 11:22:00,55.3,48.6,29.85,WNW,288,11.5,11.5,78,0.00,CLR,,0.00,WeatherDisplay:10.37,2013-02-11 16:22:00,
2013-02-11 11:27:00,55.3,48.9,29.85,South,191,11.5,11.5,79,0.00,CLR,,0.00,WeatherDisplay:10.37,2013-02-11 16:27:00,
2013-02-11 11:32:00,55.2,48.8,29.84,SW,217,9.2,9.2,79,0.00,CLR,,0.00,WeatherDisplay:10.37,2013-02-11 16:32:00,
2013-02-11 11:37:00,55.3,48.9,29.84,SSW,205,10.8,10.8,79,0.00,CLR,,0.00,WeatherDisplay:10.37,2013-02-11 16:37:00,
2013-02-11 11:42:00,55.4,48.7,29.84,West,278,9.2,9.2,78,0.00,CLR,,0.00,WeatherDisplay:10.37,2013-02-11 16:42:00,
2013-02-11 11:47:00,55.9,48.8,29.84,WSW,239,10.9,10.9,77,0.00,CLR,,0.00,WeatherDisplay:10.37,2013-02-11 16:47:00,
2013-02-11 11:52:00,56.7,49.6,29.83,WSW,240,8.1,8.1,77,0.00,CLR,,0.00,WeatherDisplay:10.37,2013-02-11 16:52:00,
2013-02-11 11:57:00,57.2,49.3,29.83,WSW,244,10.4,10.4,75,0.00,CLR,,0.00,WeatherDisplay:10.37,2013-02-11 16:57:00,
2013-02-11 12:02:00,57.5,49.3,29.83,WNW,292,10.4,10.4,74,0.00,CLR,,0.00,WeatherDisplay:10.37,2013-02-11 17:02:00,
2013-02-11 12:07:00,57.8,49.6,29.82,SW,222,8.1,8.1,74,0.00,CLR,,0.00,WeatherDisplay:10.37,2013-02-11 17:07:00,
2013-02-11 12:12:00,57.6,49.4,29.82,WSW,254,11.5,11.5,74,0.00,CLR,,0.00,WeatherDisplay:10.37,2013-02-11 17:12:00,
2013-02-11 12:17:00,57.7,49.8,29.81,West,275,8.1,8.1,75,0.00,CLR,,0.00,WeatherDisplay:10.37,2013-02-11 17:17:00,
2013-02-11 12:23:00,57.9,49.7,29.81,SW,229,9.2,9.2,74,0.00,CLR,,0.00,WeatherDisplay:10.37,2013-02-11 17:23:00,
2013-02-11 12:28:00,58.2,49.6,29.80,SSE,160,12.0,12.0,73,0.00,CLR,,0.00,WeatherDisplay:10.37,2013-02-11 17:28:00,
2013-02-11 12:33:00,58.3,49.3,29.80,West,280,9.2,9.2,72,0.00,CLR,,0.00,WeatherDisplay:10.37,2013-02-11 17:33:00,
2013-02-11 12:38:00,59.0,50.4,29.80,SSW,193,15.0,15.0,73,0.00,CLR,,0.00,WeatherDisplay:10.37,2013-02-11 17:38:00,
2013-02-11 12:43:00,59.4,50.0,29.80,SSW,208,15.0,15.0,71,0.00,CLR,,0.00,WeatherDisplay:10.37,2013-02-11 17:43:00,
2013-02-11 12:48:00,59.4,50.4,29.80,WSW,257,9.2,9.2,72,0.00,CLR,,0.00,WeatherDisplay:10.37,2013-02-11 17:48:00,
2013-02-11 12:53:00,59.6,49.4,29.79,WNW,295,10.4,10.4,69,0.00,CLR,,0.00,WeatherDisplay:10.37,2013-02-11 17:53:00,
2013-02-11 12:58:00,59.7,49.1,29.79,WSW,239,8.1,8.1,68,0.00,CLR,,0.00,WeatherDisplay:10.37,2013-02-11 17:58:00,
2013-02-11 13:03:00,59.7,49.1,29.78,SSW,206,11.0,11.0,68,0.00,CLR,,0.00,WeatherDisplay:10.37,2013-02-11 18:03:00,
2013-02-11 13:08:00,59.5,49.3,29.78,West,260,10.4,10.4,69,0.00,CLR,,0.00,WeatherDisplay:10.37,2013-02-11 18:08:00,
2013-02-11 13:13:00,59.5,49.3,29.77,SW,224,8.1,8.1,69,0.00,CLR,,0.00,WeatherDisplay:10.37,2013-02-11 18:13:00,
2013-02-11 13:18:00,59.4,48.8,29.78,West,277,11.5,11.5,68,0.00,CLR,,0.00,WeatherDisplay:10.37,2013-02-11 18:18:00,
2013-02-11 13:23:00,59.9,49.3,29.77,West,270,10.4,10.4,68,0.00,CLR,,0.00,WeatherDisplay:10.37,2013-02-11 18:23:00,
2013-02-11 13:28:00,60.3,49.3,29.77,WNW,284,8.1,8.1,67,0.00,CLR,,0.00,WeatherDisplay:10.37,2013-02-11 18:28:00,
2013-02-11 13:33:00,60.6,49.2,29.77,West,265,9.2,9.2,66,0.00,CLR,,0.00,WeatherDisplay:10.37,2013-02-11 18:33:00,
2013-02-11 13:38:00,60.7,49.3,29.77,SW,230,10.4,10.4,66,0.00,CLR,,0.00,WeatherDisplay:10.37,2013-02-11 18:38:00,
2013-02-11 13:43:00,60.5,49.1,29.76,SW,216,12.8,12.8,66,0.00,CLR,,0.00,WeatherDisplay:10.37,2013-02-11 18:43:00,
2013-02-11 13:48:00,60.5,49.5,29.76,SW,227,13.0,13.0,67,0.00,CLR,,0.00,WeatherDisplay:10.37,2013-02-11 18:48:00,
2013-02-11 13:53:00,60.7,49.3,29.76,WNW,289,11.5,11.5,66,0.00,CLR,,0.00,WeatherDisplay:10.37,2013-02-11 18:53:00,
2013-02-11 13:58:00,61.0,49.1,29.75,WSW,254,10.4,10.4,65,0.00,CLR,,0.00,WeatherDisplay:10.37,2013-02-11 18:58:00,
2013-02-11 14:03:00,61.2,49.3,29.75,West,280,15.0,15.0,65,0.00,CLR,,0.00,WeatherDisplay:10.37,2013-02-11 19:03:00,
2013-02-11 14:08:00,61.2,49.3,29.75,WSW,237,17.0,17.0,65,0.00,CLR,,0.00,WeatherDisplay:10.37,2013-02-11 19:08:00,
2013-02-11 14:13:00,61.3,49.4,29.74,WNW,288,17.3,17.3,65,0.00,CLR,,0.00,WeatherDisplay:10.37,2013-02-11 19:13:00,
2013-02-11 14:18:00,61.6,49.3,29.74,WSW,243,15.0,15.0,64,0.00,CLR,,0.00,WeatherDisplay:10.37,2013-02-11 19:18:00,
2013-02-11 14:23:00,61.5,49.2,29.74,WSW,250,8.1,8.1,64,0.00,CLR,,0.00,WeatherDisplay:10.37,2013-02-11 19:23:00,
2013-02-11 14:28:00,61.3,49.0,29.74,SSW,213,9.2,9.2,64,0.00,CLR,,0.00,WeatherDisplay:10.37,2013-02-11 19:28:00,
2013-02-11 14:33:00,61.8,48.6,29.74,South,179,9.2,9.2,62,0.00,CLR,,0.00,WeatherDisplay:10.37,2013-02-11 19:33:00,
2013-02-11 14:38:00,62.3,49.1,29.74,WNW,291,11.1,11.1,62,0.00,CLR,,0.00,WeatherDisplay:10.37,2013-02-11 19:38:00,
2013-02-11 14:43:00,62.4,48.3,29.74,SW,216,12.7,12.7,60,0.00,CLR,,0.00,WeatherDisplay:10.37,2013-02-11 19:43:00,
2013-02-11 14:48:00,61.8,47.8,29.75,SSW,196,10.4,10.4,60,0.00,CLR,,0.00,WeatherDisplay:10.37,2013-02-11 19:48:00,
2013-02-11 14:53:00,61.7,48.1,29.74,WNW,284,9.2,9.2,61,0.00,CLR,,0.00,WeatherDisplay:10.37,2013-02-11 19:53:00,
2013-02-11 14:58:00,61.6,47.6,29.74,West,267,12.7,12.7,60,0.00,CLR,,0.00,WeatherDisplay:10.37,2013-02-11 19:58:00,
2013-02-11 15:03:00,61.8,47.3,29.74,WNW,301,12.7,12.7,59,0.00,CLR,,0.00,WeatherDisplay:10.37,2013-02-11 20:03:00,
2013-02-11 15:08:00,61.8,47.8,29.74,SW,230,10.4,10.4,60,0.00,CLR,,0.00,WeatherDisplay:10.37,2013-02-11 20:08:00,
2013-02-11 15:13:00,61.9,47.9,29.74,WSW,246,12.7,12.7,60,0.00,CLR,,0.00,WeatherDisplay:10.37,2013-02-11 20:13:00,
2013-02-11 15:18:00,61.7,48.1,29.74,West,267,11.5,11.5,61,0.00,CLR,,0.00,WeatherDisplay:10.37,2013-02-11 20:18:00,
2013-02-11 15:23:00,61.6,47.6,29.74,SSW,198,9.2,9.2,60,0.00,CLR,,0.00,WeatherDisplay:10.37,2013-02-11 20:23:00,
2013-02-11 15:28:00,61.4,47.4,29.74,SW,217,9.2,9.2,60,0.00,CLR,,0.00,WeatherDisplay:10.37,2013-02-11 20:28:00,
2013-02-11 15:33:00,61.3,47.3,29.74,South,182,8.0,8.0,60,0.00,CLR,,0.00,WeatherDisplay:10.37,2013-02-11 20:33:00,
2013-02-11 15:38:00,61.3,47.3,29.74,WSW,244,9.2,9.2,60,0.00,CLR,,0.00,WeatherDisplay:10.37,2013-02-11 20:38:00,
2013-02-11 15:43:00,61.2,47.2,29.74,West,263,9.2,9.2,60,0.00,CLR,,0.00,WeatherDisplay:10.37,2013-02-11 20:43:00,
2013-02-11 15:48:00,61.2,47.2,29.74,West,281,13.8,13.8,60,0.00,CLR,,0.00,WeatherDisplay:10.37,2013-02-11 20:48:00,
2013-02-11 15:53:00,61.2,47.2,29.73,South,181,12.7,12.7,60,0.00,CLR,,0.00,WeatherDisplay:10.37,2013-02-11 20:53:00,
2013-02-11 15:58:00,61.1,46.2,29.73,WNW,302,10.4,10.4,58,0.00,CLR,,0.00,WeatherDisplay:10.37,2013-02-11 20:58:00,
2013-02-11 16:03:00,61.2,45.8,29.73,SSW,205,12.7,12.7,57,0.00,CLR,,0.00,WeatherDisplay:10.37,2013-02-11 21:03:00,
2013-02-11 16:08:00,61.4,46.5,29.73,SSW,200,5.8,5.8,58,0.00,CLR,,0.00,WeatherDisplay:10.37,2013-02-11 21:08:00,
2013-02-11 16:13:00,61.3,44.5,29.73,WNW,285,8.1,8.1,54,0.00,CLR,,0.00,WeatherDisplay:10.37,2013-02-11 21:13:00,
2013-02-11 16:18:00,61.4,45.1,29.73,WSW,243,8.1,8.1,55,0.00,CLR,,0.00,WeatherDisplay:10.37,2013-02-11 21:18:00,
2013-02-11 16:23:00,61.4,44.6,29.73,West,267,6.9,6.9,54,0.00,CLR,,0.00,WeatherDisplay:10.37,2013-02-11 21:23:00,
2013-02-11 16:28:00,61.4,44.6,29.73,SSW,212,5.8,5.8,54,0.00,CLR,,0.00,WeatherDisplay:10.37,2013-02-11 21:28:00,
2013-02-11 16:33:00,61.2,44.4,29.73,SW,219,9.2,9.2,54,0.00,CLR,,0.00,WeatherDisplay:10.37,2013-02-11 21:33:00,
2013-02-11 16:38:00,61.3,42.0,29.73,SW,234,15.0,15.0,49,0.00,CLR,,0.00,WeatherDisplay:10.37,2013-02-11 21:38:00,
2013-02-11 16:43:00,61.4,43.1,29.73,West,270,8.1,8.1,51,0.00,CLR,,0.00,WeatherDisplay:10.37,2013-02-11 21:43:00,
2013-02-11 16:48:00,61.2,42.9,29.73,WSW,237,8.1,8.1,51,0.00,CLR,,0.00,WeatherDisplay:10.37,2013-02-11 21:48:00,
2013-02-11 16:53:00,61.2,42.4,29.72,WSW,241,4.6,4.6,50,0.00,CLR,,0.00,WeatherDisplay:10.37,2013-02-11 21:53:00,
2013-02-11 16:58:00,60.8,42.0,29.72,WSW,239,9.0,9.0,50,0.00,CLR,,0.00,WeatherDisplay:10.37,2013-02-11 21:58:00,
2013-02-11 17:03:00,60.8,41.5,29.72,NW,326,9.2,9.2,49,0.00,CLR,,0.00,WeatherDisplay:10.37,2013-02-11 22:03:00,
2013-02-11 17:08:00,60.9,41.6,29.73,WNW,299,5.8,5.8,49,0.00,CLR,,0.00,WeatherDisplay:10.37,2013-02-11 22:08:00,
2013-02-11 17:13:00,60.7,40.3,29.73,WNW,296,10.4,10.4,47,0.00,CLR,,0.00,WeatherDisplay:10.37,2013-02-11 22:13:00,
2013-02-11 17:18:00,60.7,40.3,29.73,WSW,250,9.2,9.2,47,0.00,CLR,,0.00,WeatherDisplay:10.37,2013-02-11 22:18:00,
2013-02-11 17:23:00,60.7,39.2,29.72,WNW,295,8.1,8.1,45,0.00,CLR,,0.00,WeatherDisplay:10.37,2013-02-11 22:23:00,
2013-02-11 17:29:00,60.5,39.6,29.73,West,268,8.1,8.1,46,0.00,CLR,,0.00,WeatherDisplay:10.37,2013-02-11 22:29:00,
2013-02-11 17:33:00,60.3,38.9,29.72,West,264,8.1,8.1,45,0.00,CLR,,0.00,WeatherDisplay:10.37,2013-02-11 22:33:00,
2013-02-11 17:39:00,60.1,38.1,29.72,WSW,239,8.1,8.1,44,0.00,CLR,,0.00,WeatherDisplay:10.37,2013-02-11 22:39:00,
2013-02-11 17:44:00,60.1,38.1,29.73,WNW,295,5.8,5.8,44,0.00,CLR,,0.00,WeatherDisplay:10.37,2013-02-11 22:44:00,
2013-02-11 17:49:00,60.0,38.0,29.72,WNW,285,5.8,5.8,44,0.00,CLR,,0.00,WeatherDisplay:10.37,2013-02-11 22:49:00,
2013-02-11 17:54:00,59.6,37.1,29.72,WSW,258,8.1,8.1,43,0.00,CLR,,0.00,WeatherDisplay:10.37,2013-02-11 22:54:00,
2013-02-11 17:59:00,59.5,35.8,29.72,WNW,289,8.1,8.1,41,0.00,CLR,,0.00,WeatherDisplay:10.37,2013-02-11 22:59:00,
2013-02-11 18:04:00,59.5,35.1,29.73,WNW,291,5.8,5.8,40,0.00,CLR,,0.00,WeatherDisplay:10.37,2013-02-11 23:04:00,
2013-02-11 18:09:00,59.4,33.8,29.72,West,261,10.4,10.4,38,0.00,CLR,,0.00,WeatherDisplay:10.37,2013-02-11 23:09:00,
2013-02-11 18:14:00,59.5,31.8,29.72,NW,313,9.2,9.2,35,0.00,CLR,,0.00,WeatherDisplay:10.37,2013-02-11 23:14:00,
2013-02-11 18:19:00,59.5,30.3,29.73,NW,308,10.9,10.9,33,0.00,CLR,,0.00,WeatherDisplay:10.37,2013-02-11 23:19:00,
2013-02-11 18:24:00,59.6,30.4,29.73,West,280,9.2,9.2,33,0.00,CLR,,0.00,WeatherDisplay:10.37,2013-02-11 23:24:00,
2013-02-11 18:29:00,59.4,29.5,29.73,West,278,6.9,6.9,32,0.00,CLR,,0.00,WeatherDisplay:10.37,2013-02-11 23:29:00,
2013-02-11 18:34:00,59.2,30.8,29.73,WSW,258,5.8,5.8,34,0.00,CLR,,0.00,WeatherDisplay:10.37,2013-02-11 23:34:00,
2013-02-11 18:39:00,59.0,29.2,29.73,West,263,8.1,8.1,32,0.00,CLR,,0.00,WeatherDisplay:10.37,2013-02-11 23:39:00,
2013-02-11 18:44:00,58.7,29.6,29.73,West,281,8.1,8.1,33,0.00,CLR,,0.00,WeatherDisplay:10.37,2013-02-11 23:44:00,
2013-02-11 18:49:00,58.6,28.8,29.73,WNW,302,9.2,9.2,32,0.00,CLR,,0.00,WeatherDisplay:10.37,2013-02-11 23:49:00,
2013-02-11 18:54:00,58.7,28.1,29.73,WNW,291,5.8,5.8,31,0.00,CLR,,0.00,WeatherDisplay:10.37,2013-02-11 23:54:00,
2013-02-11 18:59:00,58.4,27.1,29.73,NW,308,9.2,9.2,30,0.00,CLR,,0.00,WeatherDisplay:10.37,2013-02-11 23:59:00,
2013-02-11 19:04:00,58.2,28.5,29.73,West,277,8.1,8.1,32,0.00,CLR,,0.00,WeatherDisplay:10.37,2013-02-12 00:04:00,
2013-02-11 19:09:00,57.7,27.2,29.73,NNW,344,9.6,9.6,31,0.00,CLR,,0.00,WeatherDisplay:10.37,2013-02-12 00:09:00,
2013-02-11 19:14:00,57.5,26.3,29.73,West,275,9.2,9.2,30,0.00,CLR,,0.00,WeatherDisplay:10.37,2013-02-12 00:14:00,
2013-02-11 19:19:00,57.5,25.5,29.74,NW,309,9.2,9.2,29,0.00,CLR,,0.00,WeatherDisplay:10.37,2013-02-12 00:19:00,
2013-02-11 19:24:00,57.8,25.7,29.74,West,278,9.2,9.2,29,0.00,CLR,,0.00,WeatherDisplay:10.37,2013-02-12 00:24:00,
2013-02-11 19:29:00,57.8,28.1,29.74,SSW,205,3.5,3.5,32,0.00,CLR,,0.00,WeatherDisplay:10.37,2013-02-12 00:29:00,
2013-02-11 19:34:00,56.9,28.8,29.74,NW,312,3.5,3.5,34,0.00,CLR,,0.00,WeatherDisplay:10.37,2013-02-12 00:34:00,
2013-02-11 19:39:00,56.1,28.1,29.75,West,281,5.8,5.8,34,0.00,CLR,,0.00,WeatherDisplay:10.37,2013-02-12 00:39:00,
2013-02-11 19:44:00,55.7,27.7,29.75,WSW,254,8.1,8.1,34,0.00,CLR,,0.00,WeatherDisplay:10.37,2013-02-12 00:44:00,
2013-02-11 19:49:00,55.4,26.0,29.75,NW,308,12.7,12.7,32,0.00,CLR,,0.00,WeatherDisplay:10.37,2013-02-12 00:49:00,
2013-02-11 19:54:00,55.7,26.3,29.75,WNW,302,5.8,5.8,32,0.00,CLR,,0.00,WeatherDisplay:10.37,2013-02-12 00:54:00,
2013-02-11 19:59:00,55.6,26.9,29.75,SW,222,4.8,4.8,33,0.00,CLR,,0.00,WeatherDisplay:10.37,2013-02-12 00:59:00,
2013-02-11 20:04:00,55.2,26.6,29.76,WSW,256,4.6,4.6,33,0.00,CLR,,0.00,WeatherDisplay:10.37,2013-02-12 01:04:00,
2013-02-11 20:09:00,55.2,24.3,29.76,WNW,301,11.5,11.5,30,0.00,CLR,,0.00,WeatherDisplay:10.37,2013-02-12 01:09:00,
2013-02-11 20:14:00,55.8,25.6,29.76,West,281,6.8,6.8,31,0.00,CLR,,0.00,WeatherDisplay:10.37,2013-02-12 01:14:00,
2013-02-11 20:19:00,55.4,25.2,29.77,WNW,288,6.4,6.4,31,0.00,CLR,,0.00,WeatherDisplay:10.37,2013-02-12 01:19:00,
2013-02-11 20:24:00,55.3,23.5,29.76,NW,322,10.4,10.4,29,0.00,CLR,,0.00,WeatherDisplay:10.37,2013-02-12 01:24:00,
2013-02-11 20:29:00,55.5,22.9,29.77,WNW,292,15.0,15.0,28,0.00,CLR,,0.00,WeatherDisplay:10.37,2013-02-12 01:29:00,
2013-02-11 20:34:00,55.5,23.7,29.77,NW,319,9.2,9.2,29,0.00,CLR,,0.00,WeatherDisplay:10.37,2013-02-12 01:34:00,
2013-02-11 20:39:00,55.3,24.4,29.77,WNW,282,6.9,6.9,30,0.00,CLR,,0.00,WeatherDisplay:10.37,2013-02-12 01:39:00,
2013-02-11 20:44:00,54.8,24.7,29.77,WNW,296,8.1,8.1,31,0.00,CLR,,0.00,WeatherDisplay:10.37,2013-02-12 01:44:00,
2013-02-11 20:49:00,54.7,24.6,29.77,WNW,301,6.9,6.9,31,0.00,CLR,,0.00,WeatherDisplay:10.37,2013-02-12 01:49:00,
2013-02-11 20:54:00,54.5,23.7,29.78,West,261,7.3,7.3,30,0.00,CLR,,0.00,WeatherDisplay:10.37,2013-02-12 01:54:00,
2013-02-11 20:59:00,54.7,23.8,29.77,WNW,296,7.7,7.7,30,0.00,CLR,,0.00,WeatherDisplay:10.37,2013-02-12 01:59:00,
2013-02-11 21:04:00,54.3,23.5,29.77,WNW,288,8.1,8.1,30,0.00,CLR,,0.00,WeatherDisplay:10.37,2013-02-12 02:04:00,
2013-02-11 21:09:00,54.2,22.6,29.78,West,278,17.3,17.3,29,0.00,CLR,,0.00,WeatherDisplay:10.37,2013-02-12 02:09:00,
2013-02-11 21:14:00,54.2,23.4,29.79,WNW,292,8.1,8.1,30,0.00,CLR,,0.00,WeatherDisplay:10.37,2013-02-12 02:14:00,
2013-02-11 21:19:00,53.9,23.1,29.79,NW,304,10.4,10.4,30,0.00,CLR,,0.00,WeatherDisplay:10.37,2013-02-12 02:19:00,
2013-02-11 21:24:00,54.0,23.2,29.79,WNW,282,16.1,16.1,30,0.00,CLR,,0.00,WeatherDisplay:10.37,2013-02-12 02:24:00,
2013-02-11 21:29:00,54.3,23.5,29.79,NNW,337,11.5,11.5,30,0.00,CLR,,0.00,WeatherDisplay:10.37,2013-02-12 02:29:00,
2013-02-11 21:34:00,53.8,23.8,29.79,NW,311,9.4,9.4,31,0.00,CLR,,0.00,WeatherDisplay:10.37,2013-02-12 02:34:00,
2013-02-11 21:39:00,53.6,24.4,29.79,NW,318,18.4,18.4,32,0.00,CLR,,0.00,WeatherDisplay:10.37,2013-02-12 02:39:00,
2013-02-11 21:44:00,53.5,24.3,29.80,NW,325,12.8,12.8,32,0.00,CLR,,0.00,WeatherDisplay:10.37,2013-02-12 02:44:00,
2013-02-11 21:50:00,53.4,24.2,29.80,NW,316,16.1,16.1,32,0.00,CLR,,0.00,WeatherDisplay:10.37,2013-02-12 02:50:00,
2013-02-11 21:55:00,53.1,24.0,29.80,NW,320,10.4,10.4,32,0.00,CLR,,0.00,WeatherDisplay:10.37,2013-02-12 02:55:00,
2013-02-11 22:00:00,52.7,24.4,29.81,WNW,288,11.5,11.5,33,0.00,CLR,,0.00,WeatherDisplay:10.37,2013-02-12 03:00:00,
2013-02-11 22:05:00,53.0,24.6,29.81,NW,309,18.4,18.4,33,0.00,CLR,,0.00,WeatherDisplay:10.37,2013-02-12 03:05:00,
2013-02-11 22:10:00,53.3,25.6,29.81,WNW,287,12.7,12.7,34,0.00,CLR,,0.00,WeatherDisplay:10.37,2013-02-12 03:10:00,
2013-02-11 22:15:00,52.5,24.9,29.81,NW,305,8.1,8.1,34,0.00,CLR,,0.00,WeatherDisplay:10.37,2013-02-12 03:15:00,
2013-02-11 22:27:00,51.9,25.8,29.81,NW,315,8.1,0.0,36,0.00,CLR,,0.00,WeatherDisplay:10.37,2013-02-12 03:27:00,
2013-02-11 22:32:00,51.2,25.8,29.82,NW,308,6.9,6.9,37,0.00,CLR,,0.00,WeatherDisplay:10.37,2013-02-12 03:32:00,
2013-02-11 22:37:00,50.8,26.1,29.81,NNW,335,6.9,6.9,38,0.00,CLR,,0.00,WeatherDisplay:10.37,2013-02-12 03:37:00,
2013-02-11 22:42:00,50.1,26.1,29.81,North,1,8.0,8.0,39,0.00,CLR,,0.00,WeatherDisplay:10.37,2013-02-12 03:42:00,
2013-02-11 22:47:00,50.9,25.5,29.81,NW,320,15.0,15.0,37,0.00,CLR,,0.00,WeatherDisplay:10.37,2013-02-12 03:47:00,
2013-02-11 22:52:00,51.1,25.7,29.81,NNW,347,13.8,13.8,37,0.00,CLR,,0.00,WeatherDisplay:10.37,2013-02-12 03:52:00,
2013-02-11 22:57:00,50.7,26.0,29.81,North,350,15.4,15.4,38,0.00,CLR,,0.00,WeatherDisplay:10.37,2013-02-12 03:57:00,
2013-02-11 23:02:00,50.6,25.9,29.81,NW,313,16.1,16.1,38,0.00,CLR,,0.00,WeatherDisplay:10.37,2013-02-12 04:02:00,
2013-02-11 23:08:00,50.0,26.0,29.82,NNW,329,10.4,10.4,39,0.00,CLR,,0.00,WeatherDisplay:10.37,2013-02-12 04:08:00,
2013-02-11 23:13:00,49.7,25.1,29.82,NW,320,15.3,15.3,38,0.00,CLR,,0.00,WeatherDisplay:10.37,2013-02-12 04:13:00,
2013-02-11 23:18:00,50.2,25.5,29.83,NW,306,23.0,23.0,38,0.00,CLR,,0.00,WeatherDisplay:10.37,2013-02-12 04:18:00,
2013-02-11 23:23:00,49.8,25.8,29.83,WNW,289,13.8,13.8,39,0.00,CLR,,0.00,WeatherDisplay:10.37,2013-02-12 04:23:00,
2013-02-11 23:28:00,49.7,25.7,29.83,NW,323,16.1,16.1,39,0.00,CLR,,0.00,WeatherDisplay:10.37,2013-02-12 04:28:00,
2013-02-11 23:33:00,48.8,26.1,29.83,NW,319,19.6,19.6,41,0.00,CLR,,0.00,WeatherDisplay:10.37,2013-02-12 04:33:00,
2013-02-11 23:38:00,48.7,26.6,29.83,North,349,25.3,25.3,42,0.00,CLR,,0.00,WeatherDisplay:10.37,2013-02-12 04:38:00,
2013-02-11 23:43:00,48.7,26.6,29.84,WNW,295,33.4,33.4,42,0.00,CLR,,0.00,WeatherDisplay:10.37,2013-02-12 04:43:00,
2013-02-11 23:48:00,48.3,26.8,29.83,NW,304,21.9,21.9,43,0.00,CLR,,0.00,WeatherDisplay:10.37,2013-02-12 04:48:00,
2013-02-11 23:53:00,48.0,27.1,29.84,NNW,332,20.7,20.7,44,0.00,CLR,,0.00,WeatherDisplay:10.37,2013-02-12 04:53:00,
2013-02-11 23:58:00,47.7,27.4,29.84,NNW,336,23.0,23.0,45,0.00,CLR,,0.00,WeatherDisplay:10.37,2013-02-12 04:58:00,